Date,TemperatureHighF,TemperatureAvgF,TemperatureLowF,DewpointHighF,DewpointAvgF,DewpointLowF,HumidityHigh,HumidityAvg,HumidityLow,PressureMaxIn,PressureMinIn,WindSpeedMaxMPH,WindSpeedAvgMPH,GustSpeedMaxMPH,PrecipitationSumIn
2013-1-1,32,32,32,30,30,30,93,93,93,30.30,30.30,0,0,1,0.00
2013-1-2,66,55,32,65,48,30,96,78,57,30.30,29.92,18,3,18,0.00
2013-1-3,48,44,36,45,41,34,97,91,81,30.27,30.09,13,2,18,0.22
2013-1-4,57,45,33,40,34,28,92,70,34,30.35,30.24,14,2,14,0.04
2013-1-5,55,48,39,43,35,29,89,60,44,30.31,30.17,12,1,12,0.02
2013-1-6,55,50,46,45,41,36,87,70,53,30.22,30.10,14,2,14,0.00
2013-1-7,64,50,37,44,39,34,95,69,35,30.25,30.15,13,1,13,0.00
2013-1-8,64,58,48,58,50,39,84,77,68,30.21,30.10,11,2,12,0.00
2013-1-9,70,67,64,68,64,58,98,92,81,30.21,30.12,16,3,18,0.00
2013-1-10,70,67,64,68,66,63,100,97,93,30.22,30.06,20,6,23,0.42
2013-1-11,74,69,63,69,66,62,99,92,81,30.12,30.02,18,3,20,0.06
2013-1-12,74,69,67,69,67,66,100,93,78,30.08,29.95,19,4,20,0.00
2013-1-13,73,70,68,70,69,67,100,94,86,29.99,29.92,19,5,20,0.01
2013-1-14,76,71,69,72,69,68,100,94,77,30.06,29.97,18,4,18,0.00
2013-1-15,75,71,68,70,69,67,99,93,84,30.00,29.89,20,4,21,0.02
2013-1-16,73,61,49,70,60,49,99,96,88,29.95,29.88,15,2,19,0.11
2013-1-17,49,44,40,49,38,33,98,80,65,30.23,29.95,27,5,27,0.19
2013-1-18,60,45,33,39,35,31,92,71,36,30.44,30.23,20,2,20,0.00
2013-1-19,66,48,32,48,39,30,96,73,46,30.34,30.18,10,1,10,0.00
2013-1-20,68,52,38,49,43,37,99,77,43,30.20,30.06,11,1,11,0.00
2013-1-21,68,53,38,50,43,37,99,73,35,30.15,30.05,11,1,13,0.00
2013-1-22,49,46,41,40,33,29,78,62,47,30.29,30.12,13,5,14,0.00
2013-1-23,64,52,33,51,42,30,98,69,45,30.35,30.24,9,2,12,0.00
2013-1-24,73,55,41,58,50,40,99,84,55,30.28,30.18,18,1,18,0.00
2013-1-25,71,57,45,62,53,44,99,86,60,30.24,30.12,15,1,15,0.00
2013-1-26,74,61,51,62,57,50,99,87,63,30.20,30.12,12,1,12,0.00
2013-1-27,70,60,52,59,55,51,98,85,62,30.27,30.20,12,1,12,0.01
2013-1-28,70,64,52,64,61,51,99,90,79,30.26,30.12,15,3,15,0.00
2013-1-29,75,70,66,70,68,64,100,92,80,30.12,29.87,22,6,22,0.00
2013-1-30,76,63,46,72,59,34,98,86,60,30.03,29.62,34,8,34,0.13
2013-1-31,60,47,38,39,32,23,87,58,25,30.25,30.03,23,3,23,0.00
2013-2-1,64,51,41,42,35,24,74,55,31,30.33,30.24,16,2,18,0.00
2013-2-2,61,49,34,46,36,19,96,63,45,30.31,30.11,13,2,13,0.00
2013-2-3,69,54,45,52,44,33,99,73,27,30.19,30.06,16,1,16,0.00
2013-2-4,66,55,40,55,46,37,96,74,48,30.06,29.93,8,0,8,0.01
2013-2-5,68,60,55,62,57,52,98,89,71,29.98,29.89,15,1,15,0.36
2013-2-6,71,60,54,59,56,52,99,87,65,30.10,29.97,11,1,13,0.00
2013-2-7,74,64,54,67,60,52,99,89,63,29.99,29.72,32,3,32,0.86
2013-2-8,72,59,47,60,55,46,99,87,62,30.09,29.89,11,1,11,0.00
2013-2-9,62,54,46,52,46,42,96,78,54,30.20,30.09,13,2,13,0.00
2013-2-10,69,63,47,69,61,46,99,93,86,30.10,29.95,24,6,24,0.02
2013-2-11,76,66,58,72,64,56,98,94,74,30.04,29.96,19,4,20,0.53
2013-2-12,70,65,57,70,63,56,100,93,80,29.98,29.73,20,4,22,0.08
2013-2-13,69,58,47,69,53,45,100,85,59,30.00,29.73,19,3,19,0.04
2013-2-14,58,46,36,45,40,35,94,82,55,30.09,29.96,12,1,12,0.01
2013-2-15,66,50,32,47,40,31,99,73,38,30.10,29.98,12,1,14,0.02
2013-2-16,57,49,35,46,29,17,83,49,26,30.22,29.99,27,4,27,0.00
2013-2-17,53,40,27,33,26,14,92,61,23,30.33,30.22,11,1,13,0.00
2013-2-18,63,51,32,52,41,30,97,71,45,30.26,30.02,22,5,24,0.00
2013-2-19,70,60,38,62,49,29,98,69,34,30.14,29.95,25,4,25,0.39
2013-2-20,59,46,35,38,30,19,93,60,26,30.19,30.03,18,1,18,0.02
2013-2-21,66,54,36,65,45,30,98,74,42,30.05,29.86,19,4,20,0.00
2013-2-22,69,67,65,69,67,64,99,98,96,29.92,29.82,15,3,15,0.05
2013-2-23,70,62,58,70,62,58,100,100,99,29.89,29.73,10,1,13,1.53
2013-2-24,68,61,53,58,56,53,100,85,62,29.93,29.77,11,2,11,1.17
2013-2-25,67,62,59,66,61,58,100,96,79,29.83,29.49,19,6,24,1.52
2013-2-26,67,58,53,67,49,44,100,75,56,29.86,29.47,22,4,29,0.03
2013-2-27,63,53,44,46,43,38,95,71,44,29.97,29.86,18,1,18,0.00
2013-2-28,62,53,44,49,37,30,97,58,32,30.01,29.91,16,2,16,0.00
2013-3-1,55,47,40,40,35,31,76,62,44,30.06,29.94,14,2,15,0.00
2013-3-2,54,42,31,32,27,25,88,57,35,30.11,30.00,20,3,23,0.01
2013-3-3,54,43,33,29,26,21,85,52,28,30.15,30.04,20,3,20,0.00
2013-3-4,64,50,30,58,42,29,96,74,39,30.15,29.97,18,3,18,0.81
2013-3-5,76,64,48,63,56,39,97,77,59,30.06,29.89,24,3,26,0.00
2013-3-6,62,51,41,40,30,23,81,48,27,30.20,30.06,22,3,22,0.00
2013-3-7,65,50,32,43,35,28,94,62,30,30.27,30.15,13,1,13,0.00
2013-3-8,54,46,34,42,38,33,97,76,57,30.23,30.17,7,1,8,0.00
2013-3-9,65,60,43,56,48,39,97,65,57,30.23,30.02,20,4,23,0.00
2013-3-10,69,64,60,61,57,52,94,81,71,30.06,29.93,23,8,25,0.00
2013-3-11,70,60,47,64,58,43,97,92,80,29.93,29.76,24,5,24,0.79
2013-3-12,66,52,41,43,38,33,90,63,31,30.12,29.89,19,3,23,0.22
2013-3-13,69,54,37,44,33,23,97,52,20,30.27,30.10,24,2,24,0.02
2013-3-14,67,49,38,38,28,20,89,49,19,30.35,30.21,15,2,15,0.00
2013-3-15,70,52,36,52,43,35,99,76,30,30.25,30.10,20,2,20,0.00
2013-3-16,77,63,48,63,56,47,99,79,47,30.10,29.96,15,2,18,0.00
2013-3-17,71,62,51,65,60,50,99,93,74,29.98,29.88,13,2,14,0.00
2013-3-18,75,69,64,69,66,62,97,90,77,29.90,29.75,20,4,20,0.00
2013-3-19,77,66,54,68,58,50,97,76,48,29.98,29.81,16,3,16,0.01
2013-3-20,67,58,42,50,35,29,86,43,29,30.01,29.90,19,3,19,0.00
2013-3-21,69,55,38,42,31,20,85,46,16,30.01,29.85,15,1,15,0.00
2013-3-22,66,57,46,53,43,32,86,61,35,29.92,29.84,23,5,26,0.00
2013-3-23,69,65,61,68,60,45,99,85,51,29.84,29.55,16,4,16,0.34
2013-3-24,82,71,53,70,61,32,100,74,39,29.82,29.50,26,5,26,0.06
2013-3-25,62,53,41,37,27,19,69,39,22,30.15,29.82,24,6,26,0.06
2013-3-26,58,46,36,29,26,22,68,48,27,30.29,30.15,24,3,24,0.00
2013-3-27,63,45,31,39,31,24,90,62,27,30.36,30.21,15,1,15,0.00
2013-3-28,67,50,33,42,36,27,98,66,23,30.29,30.19,15,1,15,0.00
2013-3-29,72,55,38,52,43,26,99,70,20,30.28,30.17,13,1,15,0.00
2013-3-30,75,66,46,64,56,45,99,72,44,30.19,30.01,14,2,14,0.00
2013-3-31,79,68,56,68,62,56,99,84,56,30.02,29.85,15,2,15,0.00
2013-4-1,78,67,52,65,58,49,98,75,46,29.98,29.85,15,2,15,0.00
2013-4-2,77,63,47,57,50,41,99,69,28,30.07,29.97,15,2,18,0.00
2013-4-3,63,60,55,60,57,54,98,91,73,30.01,29.73,24,3,24,1.09
2013-4-4,66,63,59,64,62,58,98,95,92,29.89,29.81,4,0,10,0.00
2013-4-5,66,58,54,64,50,48,93,76,59,30.00,29.84,16,5,19,0.00
2013-4-6,71,63,42,55,50,41,99,65,46,30.12,29.95,14,2,14,0.00
2013-4-7,68,57,47,62,54,46,98,90,82,30.07,30.01,12,3,12,0.00
2013-4-8,75,70,64,65,62,61,96,78,62,30.07,29.95,18,7,19,0.00
2013-4-9,78,72,67,67,64,61,96,75,62,30.07,29.94,21,6,23,0.00
2013-4-10,78,71,66,69,66,61,96,83,70,30.02,29.86,19,5,21,0.00
2013-4-11,78,72,66,73,70,66,99,94,83,29.86,29.58,26,6,30,1.26
2013-4-12,78,64,52,66,53,42,100,72,29,29.91,29.69,19,3,19,0.00
2013-4-13,78,68,48,57,52,40,94,59,27,29.99,29.85,14,2,15,0.00
2013-4-14,68,63,59,65,61,57,98,91,77,29.90,29.61,28,3,28,1.61
2013-4-15,77,69,63,68,66,62,99,89,73,30.00,29.79,13,2,14,0.01
2013-4-16,78,70,64,67,65,63,98,86,67,30.06,29.98,21,2,21,0.00
2013-4-17,78,73,66,69,66,62,99,80,61,30.09,29.97,20,4,20,0.00
2013-4-18,77,72,64,72,68,62,97,89,77,29.97,29.84,22,6,22,0.00
2013-4-19,75,59,51,74,57,50,100,93,81,30.09,29.78,24,4,24,0.41
2013-4-20,70,56,44,50,41,34,96,63,30,30.18,30.06,24,4,24,0.00
2013-4-21,73,59,42,53,48,41,97,69,42,30.15,30.06,16,2,16,0.00
2013-4-22,72,66,52,62,57,48,89,74,65,30.10,30.01,13,2,13,0.00
2013-4-23,74,67,58,63,60,56,95,79,60,30.09,30.00,15,4,16,0.00
2013-4-24,77,67,54,70,64,54,99,91,69,30.09,29.98,14,1,19,0.04
2013-4-25,81,69,60,66,60,42,99,75,46,30.21,30.06,13,2,14,0.01
2013-4-26,80,71,57,56,46,34,91,45,20,30.24,30.16,16,3,18,0.01
2013-4-27,77,68,56,71,64,55,99,88,73,30.17,30.01,18,2,18,0.00
2013-4-28,80,74,68,71,68,65,98,82,62,30.04,29.91,14,2,15,0.00
2013-4-29,83,73,66,69,66,61,95,80,58,29.94,29.85,20,2,21,0.00
2013-4-30,79,71,63,70,66,62,99,86,65,29.93,29.86,15,3,15,0.00
2013-5-1,73,70,69,70,66,64,96,87,76,29.92,29.82,20,4,21,0.17
2013-5-2,78,70,66,70,64,61,96,81,63,29.94,29.84,24,4,26,0.35
2013-5-3,74,68,54,65,63,53,97,85,69,29.87,29.75,22,3,22,0.64
2013-5-4,70,58,46,53,43,35,100,65,30,29.87,29.80,26,4,26,0.50
2013-5-5,75,59,44,64,47,40,99,68,31,29.92,29.75,25,3,27,0.05
2013-5-6,74,63,51,56,49,42,86,62,38,29.96,29.87,22,3,26,0.00
2013-5-7,77,67,56,61,57,53,95,73,50,29.99,29.89,16,2,18,0.00
2013-5-8,80,68,55,68,62,54,99,82,45,30.06,29.95,16,2,19,0.00
2013-5-9,81,69,58,70,62,57,99,81,47,30.10,30.00,13,1,13,0.00
2013-5-10,78,72,64,69,66,62,95,83,67,30.09,29.88,18,2,19,0.00
2013-5-11,71,67,60,69,65,59,99,95,90,30.01,29.92,9,0,9,0.28
2013-5-12,77,74,64,68,62,58,99,67,52,30.02,29.92,11,3,12,0.01
2013-5-13,81,71,51,59,44,36,85,42,21,30.20,30.02,15,3,16,0.01
2013-5-14,78,65,50,58,52,45,98,68,33,30.23,30.12,16,2,16,0.00
2013-5-15,84,69,55,67,56,46,99,70,30,30.17,30.00,14,1,16,0.00
2013-5-16,79,73,68,70,68,62,96,83,68,30.03,29.95,13,3,15,0.00
2013-5-17,80,74,68,72,70,66,98,87,72,30.03,29.93,15,3,15,0.00
2013-5-18,83,77,71,72,70,68,96,80,65,30.06,29.97,14,2,15,0.00
2013-5-19,84,76,69,73,71,68,98,83,65,30.01,29.95,12,1,14,0.00
2013-5-20,85,77,69,76,71,68,99,82,62,30.01,29.92,14,2,15,0.00
2013-5-21,84,76,68,75,70,67,99,82,57,29.96,29.85,14,2,14,0.00
2013-5-22,85,78,66,74,70,65,99,79,63,29.95,29.84,13,1,13,0.00
2013-5-23,92,79,68,72,69,62,99,74,39,29.98,29.89,16,2,16,0.00
2013-5-24,92,80,63,72,62,51,98,60,28,30.10,29.95,16,2,16,0.00
2013-5-25,86,73,61,60,52,46,92,51,27,30.17,30.08,13,2,13,0.00
2013-5-26,84,73,60,72,65,57,98,79,45,30.17,30.07,16,2,18,0.00
2013-5-27,84,75,64,70,67,63,98,77,54,30.12,30.03,13,2,14,0.00
2013-5-28,83,74,64,72,68,63,98,83,67,30.06,30.00,20,3,20,0.00
2013-5-29,83,77,69,74,71,67,98,81,66,30.04,29.96,25,5,25,0.00
2013-5-30,84,80,76,72,71,68,87,73,59,30.04,29.96,26,7,26,0.00
2013-5-31,84,79,76,72,72,70,87,78,64,30.03,29.94,21,6,25,0.00
2013-6-1,84,78,75,74,73,71,93,83,69,29.98,29.90,16,4,21,0.00
2013-6-2,87,79,70,76,72,69,99,81,59,29.93,29.81,16,2,19,0.00
2013-6-3,87,82,73,79,74,72,98,77,64,29.87,29.79,10,1,11,0.01
2013-6-4,87,80,72,77,74,71,98,82,66,29.90,29.84,14,3,16,0.00
2013-6-5,86,81,75,77,73,70,97,77,63,29.90,29.81,16,4,16,0.26
2013-6-6,88,78,69,75,70,67,96,78,55,29.86,29.64,23,2,23,0.12
2013-6-7,86,80,71,72,70,67,93,73,58,29.85,29.69,15,2,20,0.12
2013-6-8,88,82,71,76,73,70,97,74,60,30.00,29.83,20,3,20,1.11
2013-6-9,76,73,70,74,72,69,99,98,93,30.04,29.90,15,2,20,4.06
2013-6-10,79,75,72,78,74,70,98,95,86,30.04,29.93,16,1,19,0.80
2013-6-11,90,82,73,79,75,72,99,81,58,30.04,29.96,18,2,18,0.80
2013-6-12,94,83,73,80,75,69,99,79,45,30.03,29.94,14,1,15,0.00
2013-6-13,94,85,77,80,75,68,96,75,56,29.97,29.81,21,2,21,0.00
2013-6-14,95,86,75,79,73,65,92,69,41,29.88,29.77,18,2,18,0.00
2013-6-15,87,81,73,78,73,65,89,77,65,29.97,29.86,19,3,22,0.00
2013-6-16,89,83,79,78,76,74,93,81,65,30.01,29.94,16,3,16,0.00
2013-6-17,89,82,77,77,76,73,95,81,64,29.98,29.92,19,2,20,0.02
2013-6-18,89,82,74,79,74,69,95,77,53,29.96,29.85,23,3,23,0.35
2013-6-19,89,78,71,79,74,69,99,89,62,29.98,29.87,16,0,16,0.86
2013-6-20,89,80,72,76,73,70,99,82,59,30.04,29.94,11,1,11,0.49
2013-6-21,87,79,72,76,73,69,97,83,62,30.07,29.98,14,1,16,0.05
2013-6-22,87,80,72,74,72,70,96,80,59,30.06,29.96,13,2,13,0.00
2013-6-23,86,79,74,79,74,72,98,85,64,30.07,29.97,19,1,20,0.26
2013-6-24,88,82,76,77,74,72,93,76,61,30.12,30.03,11,1,12,0.00
2013-6-25,89,81,74,78,74,72,95,81,59,30.08,29.98,11,1,11,0.01
2013-6-26,90,82,72,78,74,71,97,77,56,30.02,29.93,12,1,13,0.00
2013-6-27,93,84,75,79,76,73,96,77,57,29.96,29.85,13,2,14,0.00
2013-6-28,94,86,75,81,78,68,97,78,55,29.87,29.72,19,2,19,0.52
2013-6-29,87,80,75,81,74,70,97,83,64,29.74,29.62,11,1,20,0.00
2013-6-30,88,78,71,75,72,70,97,85,61,29.72,29.64,13,0,16,0.09
2013-7-1,92,81,70,79,71,64,98,74,42,29.84,29.70,14,1,16,0.01
2013-7-2,88,81,73,75,71,68,96,74,55,29.95,29.82,14,1,14,0.00
2013-7-3,82,76,73,78,73,71,99,92,80,29.98,29.90,16,2,16,1.41
2013-7-4,79,76,74,76,73,68,99,90,71,29.98,29.85,24,4,24,1.19
2013-7-5,78,73,70,77,72,69,100,96,83,30.04,29.95,15,1,19,4.51
2013-7-6,79,76,72,77,75,72,100,97,91,30.01,29.93,14,2,15,0.14
2013-7-7,85,80,75,78,76,74,96,86,72,30.07,29.98,16,3,16,0.06
2013-7-8,86,79,75,78,75,73,98,89,65,30.12,30.04,9,1,10,0.04
2013-7-9,91,81,71,78,74,71,99,82,56,30.13,30.03,13,1,14,0.00
2013-7-10,91,78,72,79,75,72,99,89,58,30.05,29.92,13,1,14,0.01
2013-7-11,80,76,74,78,75,72,98,96,86,29.96,29.83,12,0,14,0.52
2013-7-12,89,80,70,77,74,68,99,83,62,29.88,29.78,14,1,14,0.97
2013-7-13,89,79,70,79,73,68,99,85,63,29.93,29.80,14,2,15,0.28
2013-7-14,86,77,69,79,73,68,98,89,66,29.98,29.86,11,1,11,0.90
2013-7-15,88,79,72,78,74,70,99,85,56,30.08,29.97,15,2,15,0.51
2013-7-16,88,80,74,76,73,71,95,81,58,30.13,30.03,20,4,22,0.04
2013-7-17,91,81,74,76,73,70,96,79,51,30.16,30.04,13,1,14,0.01
2013-7-18,89,81,73,77,72,67,97,77,56,30.07,29.95,14,1,14,0.20
2013-7-19,86,78,73,79,74,71,98,87,63,30.03,29.91,13,2,14,0.42
2013-7-20,86,80,75,79,76,74,99,89,73,29.97,29.89,19,3,22,0.49
2013-7-21,87,80,75,77,74,72,94,84,66,30.01,29.93,27,2,27,0.07
2013-7-22,88,78,72,78,75,71,99,90,69,30.03,29.96,23,2,25,4.63
2013-7-23,90,80,72,82,76,69,100,89,66,29.98,29.88,13,2,23,0.05
2013-7-24,89,82,74,80,76,70,99,83,67,29.89,29.81,20,2,22,0.13
2013-7-25,91,82,73,78,74,71,99,81,57,29.94,29.80,14,1,14,0.13
2013-7-26,92,82,73,76,74,68,97,78,49,29.99,29.91,12,1,13,0.00
2013-7-27,88,80,76,81,76,72,98,87,67,29.92,29.86,11,0,11,0.10
2013-7-28,86,79,73,80,75,72,99,89,72,29.95,29.83,19,2,21,2.03
2013-7-29,89,82,75,80,76,73,99,84,62,30.06,29.92,12,1,13,0.02
2013-7-30,90,83,75,80,76,74,99,80,60,30.10,30.01,13,1,14,0.00
2013-7-31,89,82,76,82,77,73,97,87,62,30.06,29.93,14,0,14,1.12
2013-8-1,88,80,76,82,77,73,98,92,72,29.96,29.87,15,0,15,0.08
2013-8-2,90,82,74,80,76,73,99,83,61,29.97,29.86,13,1,19,0.00
2013-8-3,93,84,78,81,78,75,98,82,58,30.00,29.92,14,1,19,0.00
2013-8-4,88,79,77,81,77,76,99,95,75,30.01,29.96,9,0,9,0.00
2013-8-5,95,87,75,79,77,70,99,73,45,29.98,29.88,11,1,15,0.01
2013-8-6,96,83,75,79,75,72,97,80,50,29.97,29.85,19,1,20,0.18
2013-8-7,93,82,73,78,75,72,98,81,52,29.93,29.84,11,1,11,0.00
2013-8-8,90,81,76,79,76,72,97,86,66,29.93,29.86,18,1,18,0.04
2013-8-9,90,83,76,80,76,54,99,82,39,30.00,29.90,16,2,16,0.73
2013-8-10,90,82,75,78,75,72,98,79,60,30.04,29.96,14,1,14,0.73
2013-8-11,90,82,75,78,76,74,97,82,60,30.09,30.02,14,2,14,0.00
2013-8-12,91,78,76,79,76,74,98,91,60,30.06,29.98,7,0,14,0.00
2013-8-13,91,79,75,83,76,72,98,91,62,30.01,29.89,20,0,20,0.73
2013-8-14,90,81,74,78,74,71,99,83,62,29.92,29.83,12,1,18,0.00
2013-8-15,88,79,74,77,75,73,98,87,61,29.92,29.84,13,0,13,0.34
2013-8-16,81,77,75,78,75,73,99,94,82,29.95,29.86,8,0,8,0.40
2013-8-17,75,72,70,74,72,70,100,99,96,29.97,29.87,16,2,16,1.55
2013-8-18,80,75,71,78,74,46,100,97,40,30.00,29.92,12,1,13,0.00
2013-8-19,88,80,72,81,76,72,100,87,68,30.00,29.93,10,2,12,0.00
2013-8-20,86,78,74,79,75,72,99,92,70,30.04,29.93,20,1,23,0.25
2013-8-21,90,80,72,78,73,70,99,82,62,30.08,30.00,15,2,15,0.00
2013-8-22,89,80,72,77,73,70,95,81,61,30.05,29.92,16,2,16,0.00
2013-8-23,82,76,73,77,74,72,99,94,80,29.98,29.89,13,0,14,0.20
2013-8-24,82,76,73,76,74,70,99,92,79,30.07,29.93,19,0,19,0.02
2013-8-25,86,78,73,75,73,71,98,86,65,30.14,30.04,15,2,15,0.12
2013-8-26,88,79,71,73,68,62,94,70,45,30.14,30.04,14,1,15,0.00
2013-8-27,88,75,68,72,66,63,87,74,49,30.06,30.00,8,1,12,0.00
2013-8-28,90,83,70,74,71,67,91,67,50,30.03,29.94,10,1,11,0.02
2013-8-29,92,84,70,75,72,69,98,69,51,30.06,29.96,14,1,14,0.00
2013-8-30,92,85,74,78,74,71,92,72,55,30.02,29.89,10,1,15,0.00
2013-8-31,90,79,73,81,75,72,97,88,69,29.95,29.86,15,0,16,0.00
2013-9-1,91,79,72,81,75,70,98,88,62,29.94,29.85,18,1,20,0.33
2013-9-2,90,78,74,83,76,72,99,92,65,30.00,29.89,14,1,20,0.16
2013-9-3,90,78,74,82,75,71,99,91,67,29.99,29.88,16,1,16,0.00
2013-9-4,90,79,71,81,75,71,99,88,66,30.08,29.96,13,1,13,0.00
2013-9-5,90,80,72,81,75,71,99,86,65,30.12,30.03,11,1,12,0.00
2013-9-6,92,81,72,76,72,69,98,78,50,30.09,29.98,10,0,10,0.00
2013-9-7,90,79,71,78,72,69,97,81,55,30.04,29.96,14,1,15,0.00
2013-9-8,90,79,70,77,72,68,99,81,50,30.00,29.93,11,1,11,0.00
2013-9-9,91,79,69,77,71,67,99,79,49,30.04,29.96,15,1,15,0.00
2013-9-10,89,80,73,77,73,70,95,79,57,30.12,30.02,19,2,19,0.00
2013-9-11,90,80,72,75,72,68,96,79,52,30.12,30.02,13,1,14,0.00
2013-9-12,89,80,72,77,73,70,95,80,59,30.04,29.91,12,1,12,0.00
2013-9-13,93,80,70,77,72,68,99,79,45,29.93,29.80,13,1,15,0.00
2013-9-14,88,79,73,74,70,66,91,75,55,29.99,29.84,10,1,10,0.00
2013-9-15,90,79,71,76,71,64,95,75,58,30.06,29.97,14,1,14,0.00
2013-9-16,89,79,73,80,74,68,98,88,63,30.08,29.99,28,1,28,2.15
2013-9-17,90,79,71,78,74,70,98,84,58,30.07,29.97,15,1,15,0.01
2013-9-18,86,78,73,78,73,70,96,87,65,30.09,30.01,13,2,13,0.04
2013-9-19,86,78,72,74,71,68,95,79,56,30.08,29.99,14,2,16,0.00
2013-9-20,88,79,72,80,74,69,97,86,71,30.02,29.86,15,2,18,0.60
2013-9-21,82,77,74,79,75,73,98,93,81,29.86,29.72,23,2,23,2.94
2013-9-22,80,74,70,75,72,69,99,94,82,29.80,29.72,11,1,11,0.26
2013-9-23,88,79,72,79,75,71,98,88,69,29.89,29.77,12,2,12,2.84
2013-9-24,83,76,71,78,75,70,99,94,83,29.90,29.77,13,1,16,2.84
2013-9-25,87,77,69,80,73,68,99,89,66,29.81,29.73,12,0,12,0.00
2013-9-26,86,75,66,76,70,66,99,86,61,29.95,29.80,10,1,11,0.00
2013-9-27,85,73,63,69,65,61,96,77,52,30.04,29.94,11,1,11,0.00
2013-9-28,85,72,62,68,62,59,95,75,46,30.09,30.01,13,2,13,0.00
2013-9-29,82,71,63,69,64,58,95,78,59,30.06,29.95,12,1,12,0.00
2013-9-30,82,74,68,74,69,64,95,84,66,30.00,29.92,6,0,7,0.01
2013-10-1,85,75,67,76,71,65,97,87,66,30.06,29.97,13,1,13,0.00
2013-10-2,76,74,71,75,72,70,98,95,90,30.08,30.00,9,0,12,0.47
2013-10-3,85,77,70,78,73,67,95,87,74,30.07,29.98,15,2,16,0.00
2013-10-4,86,79,74,78,74,70,98,86,63,30.07,29.99,14,2,15,0.00
2013-10-5,86,80,74,79,75,72,99,86,68,30.04,29.94,16,2,16,0.00
2013-10-6,82,76,71,76,73,70,99,91,72,29.95,29.79,19,1,19,1.95
2013-10-7,78,69,61,71,61,55,99,77,50,29.96,29.81,18,3,21,0.01
2013-10-8,81,68,55,69,61,52,97,80,55,29.99,29.92,10,1,10,0.00
2013-10-9,79,71,65,69,66,63,95,85,70,30.10,29.98,14,2,14,0.00
2013-10-10,81,70,60,70,65,59,98,87,64,30.11,30.00,11,1,13,0.00
2013-10-11,84,70,60,72,65,60,99,85,51,30.07,29.96,8,0,9,0.00
2013-10-12,85,72,62,73,67,61,99,84,52,30.08,29.99,9,0,10,0.00
2013-10-13,86,72,63,68,64,60,99,80,44,30.15,30.05,15,1,15,0.00
2013-10-14,85,73,65,71,65,60,93,77,50,30.11,30.01,12,1,12,0.00
2013-10-15,79,70,62,70,65,61,96,83,69,30.07,29.96,12,1,13,0.00
2013-10-16,82,70,62,72,65,60,97,86,55,30.03,29.92,11,1,11,0.00
2013-10-17,84,74,66,78,71,66,99,91,68,29.97,29.88,12,1,12,0.08
2013-10-18,78,70,66,71,66,63,95,88,72,30.01,29.91,11,1,11,0.00
2013-10-19,73,68,64,67,64,58,95,88,73,30.00,29.90,15,1,15,0.01
2013-10-20,76,65,58,63,59,57,97,82,56,30.04,29.95,12,1,13,0.00
2013-10-21,71,65,61,65,61,56,95,85,76,30.05,29.96,9,0,9,0.00
2013-10-22,76,66,61,68,64,58,98,92,72,29.98,29.87,9,0,9,0.13
2013-10-23,74,62,54,58,52,43,96,71,37,30.11,29.93,16,2,18,0.00
2013-10-24,73,59,46,56,48,42,97,71,35,30.23,30.10,9,1,10,0.00
2013-10-25,69,57,48,53,46,38,98,70,35,30.36,30.18,16,3,19,0.00
2013-10-26,69,54,44,50,41,34,96,63,30,30.31,30.16,10,1,11,0.00
2013-10-27,74,59,44,59,52,43,98,79,44,30.18,30.09,10,0,10,0.00
2013-10-28,78,63,53,62,57,52,98,82,52,30.22,30.10,11,1,11,0.00
2013-10-29,77,64,53,67,59,52,99,85,54,30.27,30.18,13,2,14,0.00
2013-10-30,78,67,56,72,64,55,99,91,77,30.23,30.10,18,2,19,0.00
2013-10-31,82,76,71,74,71,68,95,85,75,30.09,29.89,21,4,21,0.02
2013-11-1,77,71,62,75,70,62,99,95,88,29.89,29.79,21,2,22,0.20
2013-11-2,76,63,51,62,54,46,99,75,43,30.10,29.87,13,1,13,0.00
2013-11-3,70,54,45,48,45,40,96,73,36,30.22,30.09,18,2,18,0.00
2013-11-4,75,62,47,60,52,44,90,69,49,30.29,30.18,14,2,14,0.00
2013-11-5,77,66,56,63,54,47,76,66,53,30.28,30.16,16,3,16,0.00
2013-11-6,75,66,59,67,62,52,97,85,72,30.17,30.07,11,1,12,0.00
2013-11-7,69,61,48,68,57,41,98,88,75,30.21,30.02,18,3,23,0.06
2013-11-8,66,52,44,44,39,35,91,65,36,30.28,30.16,18,3,19,0.00
2013-11-9,73,57,42,60,51,40,98,80,58,30.24,30.16,12,1,12,0.00
2013-11-10,77,63,52,62,56,51,98,81,51,30.25,30.15,11,1,13,0.00
2013-11-11,76,60,47,53,49,44,97,73,34,30.23,30.13,8,0,9,0.00
2013-11-12,73,56,42,53,46,26,98,73,44,30.39,30.13,26,3,26,0.00
2013-11-13,56,43,34,31,25,22,86,51,29,30.47,30.37,23,6,25,0.00
2013-11-14,64,48,32,53,38,25,95,69,52,30.41,30.23,11,1,11,0.00
2013-11-15,71,64,57,66,60,50,91,87,77,30.15,30.04,15,4,19,0.00
2013-11-16,72,63,61,66,61,60,97,94,80,30.11,30.06,12,2,13,0.00
2013-11-17,80,72,68,75,71,67,99,95,84,30.01,29.94,15,3,19,0.05
2013-11-18,74,68,58,73,66,42,99,92,54,30.04,29.93,13,1,13,2.90
2013-11-19,66,56,48,50,43,39,85,64,41,30.11,29.99,23,2,23,0.01
2013-11-20,71,59,47,59,52,42,86,76,61,30.17,30.03,11,2,12,0.00
2013-11-21,67,62,56,63,57,52,96,86,79,30.24,30.17,13,1,13,0.00
2013-11-22,72,66,61,66,64,60,98,92,82,30.24,30.12,9,1,9,0.00
2013-11-23,72,64,53,66,61,42,99,90,66,30.23,30.12,15,2,19,0.00
2013-11-24,53,49,44,42,37,32,68,63,59,30.29,30.22,22,7,24,0.00
2013-11-25,63,52,44,62,42,32,97,71,56,30.30,29.92,26,4,26,0.32
2013-11-26,70,59,46,70,58,45,98,96,92,29.92,29.67,34,6,34,2.12
2013-11-27,49,42,33,45,34,25,96,75,52,30.35,29.85,28,5,30,0.02
2013-11-28,51,38,28,34,27,22,95,69,33,30.47,30.35,11,1,11,0.00
2013-11-29,61,42,28,38,32,27,97,73,31,30.52,30.40,15,1,15,0.00
2013-11-30,66,46,30,50,39,29,98,80,45,30.44,30.26,8,0,9,0.00
2013-12-1,66,53,43,55,48,42,98,85,57,30.27,30.01,7,0,9,0.00
2013-12-2,69,56,48,57,52,47,98,87,58,30.02,29.81,11,0,11,0.00
2013-12-3,78,66,51,69,62,51,99,90,71,29.88,29.80,18,1,18,0.00
2013-12-4,78,69,62,72,68,62,99,97,83,29.99,29.87,18,1,18,1.87
2013-12-5,77,73,71,74,72,70,99,96,90,30.08,29.98,21,4,21,0.00
2013-12-6,79,74,69,75,72,67,99,95,86,30.10,29.99,20,4,20,0.00
2013-12-7,68,52,48,66,50,46,98,92,83,30.25,30.10,16,4,16,0.00
2013-12-8,76,63,49,72,62,48,99,97,85,30.21,30.06,12,2,14,0.01
2013-12-9,73,69,64,72,68,64,99,98,93,30.10,30.04,15,1,15,0.75
2013-12-10,68,51,40,68,49,37,100,91,71,30.33,30.02,23,4,24,0.07
2013-12-11,59,47,36,50,41,34,97,81,57,30.37,30.28,10,1,10,0.00
2013-12-12,59,49,35,44,35,28,87,61,33,30.46,30.34,16,2,18,0.00
2013-12-13,59,48,34,50,38,25,84,68,51,30.36,30.04,13,2,13,0.00
2013-12-14,74,67,56,70,63,49,97,89,68,30.04,29.84,20,3,21,0.01
2013-12-15,58,46,35,57,42,33,97,86,69,30.28,29.90,18,4,21,0.01
2013-12-16,60,42,32,45,37,30,98,83,48,30.33,30.23,9,0,10,0.00
2013-12-17,63,45,31,45,39,31,99,82,40,30.33,30.22,9,0,10,0.00
2013-12-18,66,48,36,43,38,32,99,75,29,30.36,30.26,12,1,14,0.00
2013-12-19,66,55,38,59,50,36,94,82,69,30.28,30.12,13,3,15,0.00
2013-12-20,73,64,56,68,62,55,98,94,83,30.15,30.02,14,3,15,0.00
2013-12-21,75,71,66,72,70,66,99,96,89,30.02,29.90,20,6,22,0.05
2013-12-22,76,70,55,74,69,54,98,95,87,30.08,29.90,24,6,26,0.37
2013-12-23,56,51,40,55,49,35,98,92,82,30.35,30.06,20,3,21,0.39
2013-12-24,54,41,30,36,32,28,93,73,41,30.46,30.33,22,3,22,0.00
2013-12-25,53,42,31,39,32,26,87,69,38,30.38,30.26,11,1,11,0.00
2013-12-26,60,48,39,46,41,37,94,76,58,30.32,30.22,14,2,16,0.00
2013-12-27,61,53,43,47,40,36,87,63,45,30.36,30.25,15,3,16,0.00
2013-12-28,61,52,48,61,50,42,99,94,64,30.26,29.83,16,2,18,2.43
2013-12-29,57,50,41,52,48,40,99,94,81,30.12,29.89,14,2,16,0.00
2013-12-30,58,48,38,52,46,37,99,94,75,30.26,30.11,3,0,5,0.01
2013-12-31,51,47,45,50,44,41,97,90,82,30.40,30.26,12,2,12,0.00
2014-1-1,62,52,45,57,50,43,98,93,83,30.33,30.03,10,0,10,0.07
2014-1-2,58,52,37,58,49,29,99,89,69,30.24,29.90,30,3,30,0.16